createdAt,value
2023-03-11T00:00:33.050Z,1.10
2023-03-11T00:03:03.371Z,1.93
2023-03-11T00:05:33.591Z,2.17
2023-03-11T00:08:02.705Z,1.20
2023-03-11T00:10:34.229Z,1.73
2023-03-11T00:13:03.122Z,1.50
2023-03-11T00:15:34.512Z,1.43
2023-03-11T00:18:02.831Z,1.10
2023-03-11T00:20:32.884Z,1.10
2023-03-11T00:23:01.373Z,0.97
2023-03-11T00:25:31.348Z,0.83
2023-03-11T00:28:05.006Z,1.90
2023-03-11T00:30:33.138Z,1.40
2023-03-11T00:33:01.618Z,1.13
2023-03-11T00:35:31.994Z,1.33
2023-03-11T00:38:04.913Z,0.90
2023-03-11T00:40:34.871Z,1.50
2023-03-11T00:43:04.931Z,1.30
2023-03-11T00:45:36.335Z,1.17
2023-03-11T00:48:07.971Z,1.30
2023-03-11T00:50:38.089Z,1.17
2023-03-11T00:53:07.314Z,1.53
2023-03-11T00:55:36.722Z,1.27
2023-03-11T00:58:08.093Z,1.23
2023-03-11T01:00:42.701Z,1.00
2023-03-11T01:03:11.367Z,1.50
2023-03-11T01:05:39.810Z,1.10
2023-03-11T01:08:07.947Z,1.50
2023-03-11T01:10:36.747Z,1.13
2023-03-11T01:13:06.245Z,1.10
2023-03-11T01:15:37.291Z,1.13
2023-03-11T01:18:06.946Z,1.00
2023-03-11T01:20:35.384Z,1.07
2023-03-11T01:23:03.456Z,1.23
2023-03-11T01:25:31.446Z,0.97
2023-03-11T01:27:59.849Z,1.20
2023-03-11T01:30:30.715Z,1.20
2023-03-11T01:32:59.514Z,1.33
2023-03-11T01:35:29.866Z,1.40
2023-03-11T01:37:59.254Z,1.37
2023-03-11T01:40:31.408Z,1.20
2023-03-11T01:42:59.831Z,1.00
2023-03-11T01:46:03.603Z,1.70
2023-03-11T01:48:33.097Z,1.20
2023-03-11T01:51:01.975Z,1.53
2023-03-11T01:53:30.427Z,1.37
2023-03-11T01:55:59.159Z,1.43
2023-03-11T01:58:32.373Z,1.03
2023-03-11T02:01:02.147Z,1.67
2023-03-11T02:03:34.619Z,1.37
2023-03-11T02:06:06.862Z,1.20
2023-03-11T02:08:35.426Z,2.30
2023-03-11T02:11:06.799Z,1.40
2023-03-11T02:13:36.299Z,1.50
2023-03-11T02:16:05.774Z,1.40
2023-03-11T02:18:35.333Z,1.30
2023-03-11T02:21:12.805Z,1.20
2023-03-11T02:23:47.572Z,1.50
2023-03-11T02:26:21.172Z,1.50
2023-03-11T02:28:53.715Z,1.50
2023-03-11T02:31:23.200Z,1.37
2023-03-11T02:33:53.995Z,1.30
2023-03-11T02:36:39.816Z,1.40
2023-03-11T02:39:08.919Z,1.40
2023-03-11T02:41:40.011Z,1.40
2023-03-11T02:44:12.589Z,1.33
2023-03-11T02:46:43.627Z,1.30
2023-03-11T02:49:12.769Z,1.70
2023-03-11T02:51:41.008Z,1.20
2023-03-11T02:54:09.270Z,1.50
2023-03-11T02:56:37.527Z,1.10
2023-03-11T02:59:06.058Z,1.00
2023-03-11T03:01:37.893Z,1.40
2023-03-11T03:04:08.052Z,1.37
2023-03-11T03:06:37.018Z,1.13
2023-03-11T03:09:05.520Z,1.67
2023-03-11T03:11:33.905Z,1.43
2023-03-11T03:14:02.072Z,1.30
2023-03-11T03:16:30.248Z,1.00
2023-03-11T03:18:59.831Z,1.17
2023-03-11T03:21:27.949Z,1.20
2023-03-11T03:23:56.208Z,0.93
2023-03-11T03:26:24.610Z,1.20
2023-03-11T03:28:52.836Z,1.30
2023-03-11T03:31:21.027Z,0.93
2023-03-11T03:33:49.153Z,1.20
2023-03-11T03:36:18.587Z,1.03
2023-03-11T03:38:46.865Z,1.43
2023-03-11T03:41:16.035Z,1.27
2023-03-11T03:43:44.280Z,1.43
2023-03-11T03:46:12.306Z,1.13
2023-03-11T03:48:40.611Z,1.30
2023-03-11T03:51:10.396Z,1.30
2023-03-11T03:53:40.410Z,1.60
2023-03-11T03:56:10.940Z,1.00
2023-03-11T03:58:39.388Z,1.07
2023-03-11T04:01:09.156Z,1.40
2023-03-11T04:03:38.964Z,1.17
2023-03-11T04:06:08.844Z,1.13
2023-03-11T04:08:38.223Z,1.20
2023-03-11T04:11:07.822Z,1.03
2023-03-11T04:13:36.185Z,1.63
2023-03-11T04:16:05.350Z,1.20
2023-03-11T04:18:34.802Z,1.10
2023-03-11T04:21:06.994Z,1.50
2023-03-11T04:23:35.851Z,1.10
2023-03-11T04:26:04.663Z,1.60
2023-03-11T04:28:34.804Z,1.40
2023-03-11T04:31:03.718Z,1.27
2023-03-11T04:33:32.151Z,1.43
2023-03-11T04:36:00.285Z,2.00
2023-03-11T04:38:28.549Z,1.50
2023-03-11T04:41:00.833Z,1.70
2023-03-11T04:43:29.130Z,1.80
2023-03-11T04:45:58.794Z,2.63
2023-03-11T04:48:27.643Z,3.77
2023-03-11T04:50:56.824Z,4.13
2023-03-11T04:53:27.264Z,3.20
2023-03-11T04:55:56.716Z,2.97
2023-03-11T04:58:25.163Z,3.27
2023-03-11T05:00:54.644Z,6.77
2023-03-11T05:03:24.400Z,6.93
2023-03-11T05:05:56.615Z,7.83
2023-03-11T05:08:24.899Z,6.97
2023-03-11T05:10:54.673Z,6.33
2023-03-11T05:13:23.197Z,5.30
2023-03-11T05:15:51.639Z,5.73
2023-03-11T05:18:20.239Z,6.13
2023-03-11T05:20:50.320Z,6.50
2023-03-11T05:23:18.875Z,6.10
2023-03-11T05:25:47.379Z,7.23
2023-03-11T05:28:15.918Z,9.20
2023-03-11T05:30:44.105Z,15.80
2023-03-11T05:33:13.454Z,19.90
2023-03-11T05:35:42.893Z,19.97
2023-03-11T05:38:12.569Z,16.40
2023-03-11T05:40:40.650Z,18.27
2023-03-11T05:43:08.823Z,17.40
2023-03-11T05:45:36.866Z,16.83
2023-03-11T05:48:05.149Z,15.67
2023-03-11T05:50:33.264Z,15.93
2023-03-11T05:53:01.931Z,14.73
2023-03-11T05:55:31.752Z,16.93
2023-03-11T05:58:02.560Z,18.20
2023-03-11T06:00:30.893Z,18.53
2023-03-11T06:02:59.594Z,16.87
2023-03-11T06:05:29.806Z,16.33
2023-03-11T06:07:57.987Z,15.33
2023-03-11T06:10:26.139Z,13.50
2023-03-11T06:12:56.030Z,15.30
2023-03-11T06:15:24.082Z,16.07
2023-03-11T06:17:52.321Z,16.20
2023-03-11T06:20:21.393Z,15.27
2023-03-11T06:22:50.122Z,12.23
2023-03-11T06:25:20.348Z,14.47
2023-03-11T06:27:53.546Z,16.50
2023-03-11T06:30:26.031Z,16.57
2023-03-11T06:32:57.280Z,16.13
2023-03-11T06:35:26.129Z,15.90
2023-03-11T06:37:54.780Z,14.60
2023-03-11T06:40:23.582Z,12.93
2023-03-11T06:42:52.810Z,15.87
2023-03-11T06:45:23.782Z,18.50
2023-03-11T06:47:52.833Z,16.63
2023-03-11T06:50:23.893Z,14.97
2023-03-11T06:52:52.883Z,14.20
2023-03-11T06:55:21.574Z,14.20
2023-03-11T06:57:49.854Z,15.43
2023-03-11T07:00:26.073Z,13.63
2023-03-11T07:02:55.970Z,11.93
2023-03-11T07:05:24.269Z,12.23
2023-03-11T07:07:55.972Z,11.33
2023-03-11T07:10:24.070Z,11.33
2023-03-11T07:12:53.713Z,12.17
2023-03-11T07:15:22.946Z,12.43
2023-03-11T07:17:52.542Z,11.43
2023-03-11T07:20:22.777Z,11.60
2023-03-11T07:22:52.694Z,10.70
2023-03-11T07:25:21.687Z,7.93
2023-03-11T07:27:51.285Z,7.17
2023-03-11T07:30:20.678Z,5.40
2023-03-11T07:32:55.342Z,4.57
2023-03-11T07:35:26.254Z,4.83
2023-03-11T07:37:55.091Z,4.17
2023-03-11T07:40:23.397Z,3.80
2023-03-11T07:42:52.016Z,3.57
2023-03-11T07:45:20.256Z,3.40
2023-03-11T07:47:48.492Z,3.50
2023-03-11T07:50:17.607Z,3.67
2023-03-11T07:52:47.673Z,3.30
2023-03-11T07:55:16.100Z,2.90
2023-03-11T07:57:44.547Z,3.40
2023-03-11T08:00:14.279Z,3.00
2023-03-11T08:02:42.500Z,3.27
2023-03-11T08:05:11.701Z,3.73
2023-03-11T08:07:40.293Z,4.10
2023-03-11T08:10:11.412Z,3.97
2023-03-11T08:12:39.660Z,4.07
2023-03-11T08:15:09.311Z,3.10
2023-03-11T08:17:37.414Z,3.00
2023-03-11T08:20:08.722Z,2.97
2023-03-11T08:22:43.410Z,3.10
2023-03-11T08:25:18.498Z,3.90
2023-03-11T08:27:46.819Z,2.57
2023-03-11T08:30:15.964Z,2.40
2023-03-11T08:32:44.093Z,2.40
2023-03-11T08:35:12.493Z,2.63
2023-03-11T08:37:41.218Z,1.90
2023-03-11T08:40:10.926Z,2.07
2023-03-11T08:42:40.700Z,2.13
2023-03-11T08:45:10.831Z,2.30
2023-03-11T08:47:40.136Z,2.13
2023-03-11T08:50:14.810Z,2.20
2023-03-11T08:52:43.287Z,2.20
2023-03-11T08:55:14.386Z,2.17
2023-03-11T08:57:44.047Z,1.93
2023-03-11T09:00:14.383Z,1.83
2023-03-11T09:02:43.368Z,1.50
2023-03-11T09:05:11.921Z,1.80
2023-03-11T09:07:39.964Z,1.57
2023-03-11T09:10:09.608Z,1.37
2023-03-11T09:12:37.978Z,1.70
2023-03-11T09:15:09.471Z,1.40
2023-03-11T09:17:38.252Z,1.77
2023-03-11T09:20:10.730Z,1.10
2023-03-11T09:22:39.041Z,1.67
2023-03-11T09:25:08.655Z,1.63
2023-03-11T09:27:36.825Z,1.40
2023-03-11T09:30:05.694Z,1.20
2023-03-11T09:32:37.188Z,1.17
2023-03-11T09:35:06.424Z,1.13
2023-03-11T09:37:35.982Z,1.10
2023-03-11T09:40:05.109Z,1.00
2023-03-11T09:42:39.535Z,1.10
2023-03-11T09:45:14.968Z,1.37
2023-03-11T09:47:57.109Z,1.47
2023-03-11T09:50:34.318Z,1.13
2023-03-11T09:53:19.657Z,1.20
2023-03-11T09:55:50.327Z,1.40
2023-03-11T09:58:24.225Z,1.37
2023-03-11T10:00:54.441Z,1.50
2023-03-11T10:03:33.944Z,1.00
2023-03-11T10:06:10.029Z,1.00
2023-03-11T10:08:44.630Z,1.50
2023-03-11T10:11:24.961Z,0.90
2023-03-11T10:14:02.912Z,0.90
2023-03-11T10:16:38.687Z,1.30
2023-03-11T10:19:17.086Z,1.50
2023-03-11T10:21:54.320Z,1.40
2023-03-11T10:24:45.837Z,1.83
2023-03-11T10:27:17.481Z,1.53
2023-03-11T10:29:54.910Z,1.63
2023-03-11T10:32:27.456Z,1.37
2023-03-11T10:35:04.115Z,1.10
2023-03-11T10:37:48.744Z,1.23
2023-03-11T10:40:24.424Z,1.40
2023-03-11T10:42:55.371Z,1.60
2023-03-11T10:45:24.613Z,1.70
2023-03-11T10:47:52.773Z,1.37
2023-03-11T10:50:22.298Z,1.40
2023-03-11T10:53:07.986Z,1.30
2023-03-11T10:55:37.877Z,1.47
2023-03-11T10:58:09.218Z,1.40
2023-03-11T11:00:37.356Z,1.90
2023-03-11T11:03:06.885Z,1.20
2023-03-11T11:05:36.710Z,1.80
2023-03-11T11:08:08.151Z,1.30
2023-03-11T11:10:37.256Z,1.50
2023-03-11T11:13:18.678Z,1.27
2023-03-11T11:15:55.956Z,1.33
2023-03-11T11:18:27.633Z,1.20
2023-03-11T11:21:02.069Z,1.30
2023-03-11T11:23:39.437Z,1.50
2023-03-11T11:26:15.267Z,1.40
2023-03-11T11:28:44.402Z,1.53
2023-03-11T11:31:24.332Z,1.50
2023-03-11T11:33:54.758Z,1.40
2023-03-11T11:36:28.793Z,1.33
2023-03-11T11:38:57.767Z,1.70
2023-03-11T11:41:29.113Z,1.40
2023-03-11T11:44:01.438Z,1.30
2023-03-11T11:46:33.764Z,1.27
2023-03-11T11:49:12.582Z,1.60
2023-03-11T11:51:48.177Z,1.70
2023-03-11T11:57:37.506Z,1.70
2023-03-11T12:00:16.193Z,2.10
2023-03-11T12:02:57.752Z,1.67
2023-03-11T12:05:31.139Z,1.50
2023-03-11T12:08:11.620Z,1.67
2023-03-11T12:10:47.591Z,2.00
2023-03-11T12:13:32.243Z,1.80
2023-03-11T12:16:06.951Z,1.90
2023-03-11T12:18:40.937Z,2.15
2023-03-11T12:21:23.783Z,1.85
2023-03-11T12:24:08.564Z,2.00
2023-03-11T12:26:40.376Z,1.75
2023-03-11T12:29:16.587Z,2.00
2023-03-11T12:31:46.173Z,1.80
2023-03-11T12:34:19.329Z,1.95
2023-03-11T12:36:49.651Z,1.77
2023-03-11T12:39:29.075Z,2.17
2023-03-11T12:42:25.229Z,1.92
2023-03-11T12:44:53.976Z,1.63
2023-03-11T12:47:35.585Z,1.90
2023-03-11T12:50:39.741Z,1.83
2023-03-11T12:53:16.118Z,1.60
2023-03-11T12:56:03.801Z,1.63
2023-03-11T12:59:02.079Z,1.27
2023-03-11T13:01:58.055Z,1.20
2023-03-11T13:04:41.493Z,1.77
2023-03-11T13:07:33.918Z,1.40
2023-03-11T13:10:07.005Z,1.38
2023-03-11T13:12:48.501Z,1.33
2023-03-11T13:15:42.970Z,1.70
2023-03-11T13:18:19.597Z,1.48
2023-03-11T13:20:51.831Z,2.20
2023-03-11T13:23:39.632Z,1.60
2023-03-11T13:26:38.376Z,1.50
2023-03-11T13:29:53.759Z,1.65
2023-03-11T13:32:35.685Z,1.40
2023-03-11T13:35:23.826Z,1.08
2023-03-11T13:38:13.375Z,1.92
2023-03-11T13:40:43.767Z,0.70
2023-03-11T13:43:50.850Z,1.08
2023-03-11T13:46:32.612Z,1.10
2023-03-11T13:51:45.021Z,1.35
2023-03-11T13:54:29.979Z,1.30
2023-03-11T13:57:00.871Z,1.42
2023-03-11T13:59:30.500Z,1.80
2023-03-11T14:02:02.829Z,1.10
2023-03-11T14:04:33.513Z,1.10
2023-03-11T14:07:01.941Z,1.30
2023-03-11T14:09:30.352Z,0.98
2023-03-11T14:12:07.785Z,1.02
2023-03-11T14:14:49.555Z,1.10
2023-03-11T14:17:21.420Z,1.10
2023-03-11T14:20:10.410Z,0.90
2023-03-11T14:22:39.872Z,0.90
2023-03-11T14:25:11.464Z,1.15
2023-03-11T14:27:40.555Z,0.95
2023-03-11T14:30:10.983Z,0.93
2023-03-11T14:32:41.619Z,1.10
2023-03-11T14:35:21.506Z,1.10
2023-03-11T14:37:50.107Z,1.00
2023-03-11T14:40:26.776Z,0.68
2023-03-11T14:42:57.447Z,1.35
2023-03-11T14:45:29.092Z,1.38
2023-03-11T14:48:03.557Z,0.75
2023-03-11T14:50:35.316Z,1.10
2023-03-11T14:53:10.598Z,1.15
2023-03-11T14:55:41.461Z,0.98
2023-03-11T14:58:16.226Z,1.42
2023-03-11T15:00:50.510Z,0.88
2023-03-11T15:03:26.082Z,1.13
2023-03-11T15:05:57.790Z,0.90
2023-03-11T15:08:32.119Z,1.15
2023-03-11T15:11:10.067Z,1.17
2023-03-11T15:13:40.432Z,0.95
2023-03-11T15:16:24.126Z,1.10
2023-03-11T15:18:55.455Z,1.40
2023-03-11T15:21:25.500Z,1.42
2023-03-11T15:23:57.232Z,1.13
2023-03-11T15:26:27.191Z,0.80
2023-03-11T15:28:57.960Z,1.10
2023-03-11T15:31:35.969Z,0.88
2023-03-11T15:34:25.618Z,0.90
2023-03-11T15:37:04.063Z,1.05
2023-03-11T15:39:47.067Z,1.20
2023-03-11T15:42:26.443Z,1.48
2023-03-11T15:45:15.119Z,1.15
2023-03-11T15:47:43.593Z,1.38
2023-03-11T15:50:24.494Z,1.45
2023-03-11T15:52:54.618Z,0.90
2023-03-11T15:55:23.664Z,1.02
2023-03-11T15:57:55.010Z,1.08
2023-03-11T16:00:27.353Z,0.98
2023-03-11T16:02:56.312Z,1.00
2023-03-11T16:05:26.611Z,1.25
2023-03-11T16:07:54.903Z,1.23
2023-03-11T16:10:25.779Z,0.90
2023-03-11T16:12:54.788Z,1.25
2023-03-11T16:15:28.775Z,1.00
2023-03-11T16:17:58.794Z,0.95
2023-03-11T16:20:30.494Z,1.00
2023-03-11T16:23:01.381Z,1.20
2023-03-11T16:25:33.366Z,1.00
2023-03-11T16:28:02.731Z,1.50
2023-03-11T16:30:33.328Z,1.42
2023-03-11T16:33:04.481Z,1.30
2023-03-11T16:35:35.736Z,1.52
2023-03-11T16:38:04.288Z,1.10
2023-03-11T16:40:32.851Z,1.25
2023-03-11T16:43:03.887Z,1.33
2023-03-11T16:45:32.320Z,1.05
2023-03-11T16:48:00.353Z,1.10
2023-03-11T16:50:29.087Z,1.40
2023-03-11T16:52:59.906Z,1.50
2023-03-11T16:55:28.900Z,1.80
2023-03-11T16:57:58.037Z,1.60
2023-03-11T17:00:26.667Z,2.30
2023-03-11T17:02:55.100Z,1.77
2023-03-11T17:05:24.880Z,1.20
2023-03-11T17:08:00.049Z,1.33
2023-03-11T17:10:30.226Z,1.57
2023-03-11T17:12:58.905Z,1.52
2023-03-11T17:15:27.279Z,1.30
2023-03-11T17:17:55.803Z,1.52
2023-03-11T17:20:24.175Z,1.57
2023-03-11T17:22:52.848Z,1.57
2023-03-11T17:25:21.136Z,1.47
2023-03-11T17:27:51.217Z,1.93
2023-03-11T17:30:35.632Z,1.37
2023-03-11T17:33:05.275Z,1.70
2023-03-11T17:35:33.849Z,1.77
2023-03-11T17:38:02.291Z,2.77
2023-03-11T17:40:31.720Z,1.30
2023-03-11T17:43:02.069Z,1.63
2023-03-11T17:45:30.559Z,1.60
2023-03-11T17:47:59.206Z,1.80
2023-03-11T17:50:27.506Z,1.73
2023-03-11T17:52:56.564Z,1.53
2023-03-11T17:55:24.900Z,1.70
2023-03-11T17:57:54.387Z,1.50
2023-03-11T18:00:24.451Z,1.77
2023-03-11T18:02:52.787Z,2.27
2023-03-11T18:05:21.769Z,2.20
2023-03-11T18:07:51.818Z,1.97
2023-03-11T18:10:21.538Z,2.70
2023-03-11T18:12:50.257Z,2.40
2023-03-11T18:15:20.024Z,2.50
2023-03-11T18:17:50.273Z,2.90
2023-03-11T18:20:18.760Z,2.37
2023-03-11T18:22:47.353Z,2.30
2023-03-11T18:25:15.885Z,2.93
2023-03-11T18:27:44.069Z,4.03
2023-03-11T18:30:14.846Z,3.13
2023-03-11T18:32:43.323Z,2.40
2023-03-11T18:35:14.254Z,3.03
2023-03-11T18:37:42.559Z,2.90
2023-03-11T18:40:12.423Z,2.93
2023-03-11T18:42:40.627Z,2.63
2023-03-11T18:45:12.232Z,2.60
2023-03-11T18:47:40.948Z,2.63
2023-03-11T18:50:10.601Z,3.10
2023-03-11T18:52:40.330Z,3.00
2023-03-11T18:55:09.056Z,3.17
2023-03-11T18:57:40.457Z,3.30
2023-03-11T19:00:09.879Z,3.10
2023-03-11T19:02:38.357Z,2.60
2023-03-11T19:05:07.688Z,2.93
2023-03-11T19:07:36.045Z,3.07
2023-03-11T19:10:06.479Z,3.20
2023-03-11T19:12:35.050Z,2.90
2023-03-11T19:15:03.512Z,2.63
2023-03-11T19:17:31.991Z,3.20
2023-03-11T19:20:00.252Z,3.50
2023-03-11T19:22:28.550Z,4.80
2023-03-11T19:24:56.777Z,4.77
2023-03-11T19:27:26.559Z,5.53
2023-03-11T19:29:54.623Z,5.83
2023-03-11T19:32:22.999Z,5.57
2023-03-11T19:34:51.349Z,5.17
2023-03-11T19:37:19.720Z,5.17
2023-03-11T19:39:47.914Z,5.73
2023-03-11T19:42:16.178Z,4.63
2023-03-11T19:44:45.601Z,4.97
2023-03-11T19:47:13.734Z,5.17
2023-03-11T19:49:41.824Z,4.80
2023-03-11T19:52:10.071Z,4.73
2023-03-11T19:54:38.480Z,5.63
2023-03-11T19:57:06.490Z,5.13
2023-03-11T19:59:34.547Z,5.33
2023-03-11T20:02:05.994Z,5.40
2023-03-11T20:04:34.956Z,6.00
2023-03-11T20:07:03.302Z,5.47
2023-03-11T20:09:33.018Z,5.33
2023-03-11T20:12:01.282Z,5.47
2023-03-11T20:14:29.708Z,5.07
2023-03-11T20:16:58.907Z,5.47
2023-03-11T20:19:28.898Z,5.10
2023-03-11T20:21:57.100Z,4.40
2023-03-11T20:24:25.118Z,4.80
2023-03-11T20:26:53.437Z,4.90
2023-03-11T20:29:22.360Z,4.00
2023-03-11T20:31:52.351Z,4.50
2023-03-11T20:34:20.646Z,4.37
2023-03-11T20:36:52.326Z,4.43
2023-03-11T20:39:20.594Z,4.03
2023-03-11T20:41:48.752Z,4.23
2023-03-11T20:44:18.020Z,4.27
2023-03-11T20:46:50.310Z,4.80
2023-03-11T20:49:18.522Z,4.53
2023-03-11T20:51:48.172Z,4.70
2023-03-11T20:54:19.084Z,4.70
2023-03-11T20:56:49.113Z,6.57
2023-03-11T20:59:17.799Z,5.60
2023-03-11T21:01:46.180Z,6.07
2023-03-11T21:04:16.645Z,5.90
2023-03-11T21:06:45.184Z,5.80
2023-03-11T21:09:14.721Z,5.70
2023-03-11T21:11:44.608Z,6.73
2023-03-11T21:14:15.993Z,5.40
2023-03-11T21:16:45.230Z,5.77
2023-03-11T21:19:14.099Z,5.50
2023-03-11T21:21:43.301Z,5.63
2023-03-11T21:24:12.465Z,5.13
2023-03-11T21:26:41.053Z,5.93
2023-03-11T21:29:10.786Z,5.27
2023-03-11T21:31:39.382Z,5.27
2023-03-11T21:34:07.719Z,5.43
2023-03-11T21:36:38.217Z,5.93
2023-03-11T21:39:07.016Z,6.13
2023-03-11T21:41:35.551Z,5.80
2023-03-11T21:44:03.816Z,5.87
2023-03-11T21:46:34.200Z,6.13
2023-03-11T21:49:02.639Z,5.37
2023-03-11T21:51:31.272Z,5.87
2023-03-11T21:54:00.356Z,5.23
2023-03-11T21:56:30.012Z,4.73
2023-03-11T21:58:58.247Z,5.33
2023-03-11T22:01:26.413Z,4.90
2023-03-11T22:03:56.709Z,4.77
2023-03-11T22:06:24.867Z,4.30
2023-03-11T22:08:53.199Z,4.43
2023-03-11T22:11:21.696Z,4.47
2023-03-11T22:13:52.155Z,4.77
2023-03-11T22:16:21.431Z,5.23
2023-03-11T22:18:50.040Z,4.83
2023-03-11T22:21:20.623Z,4.40
2023-03-11T22:23:50.097Z,4.40
2023-03-11T22:26:18.074Z,4.47
2023-03-11T22:28:46.245Z,4.13
2023-03-11T22:31:18.732Z,4.23
2023-03-11T22:33:47.223Z,3.83
2023-03-11T22:36:15.581Z,4.27
2023-03-11T22:38:45.260Z,4.43
2023-03-11T22:41:16.734Z,3.60
2023-03-11T22:43:45.186Z,3.80
2023-03-11T22:46:13.558Z,3.80
2023-03-11T22:48:41.665Z,4.10
2023-03-11T22:51:09.928Z,3.53
2023-03-11T22:53:38.350Z,3.57
2023-03-11T22:56:13.603Z,3.53
2023-03-11T22:58:41.621Z,3.70
2023-03-11T23:01:10.433Z,3.57
2023-03-11T23:03:39.381Z,3.37
2023-03-11T23:06:09.972Z,3.60
2023-03-11T23:08:38.513Z,3.97
2023-03-11T23:11:09.644Z,3.53
2023-03-11T23:13:40.056Z,3.23
2023-03-11T23:16:10.976Z,4.03
2023-03-11T23:18:39.649Z,4.20
2023-03-11T23:21:16.238Z,4.07
2023-03-11T23:23:44.551Z,3.93
2023-03-11T23:26:14.154Z,4.00
2023-03-11T23:28:44.392Z,3.90
2023-03-11T23:31:14.465Z,4.43
2023-03-11T23:33:43.562Z,3.93
2023-03-11T23:36:14.213Z,3.60
2023-03-11T23:38:42.415Z,4.03
2023-03-11T23:41:12.601Z,4.37
2023-03-11T23:43:40.831Z,4.27
2023-03-11T23:46:11.595Z,4.07
2023-03-11T23:48:40.916Z,4.30
2023-03-11T23:51:09.767Z,4.80
2023-03-11T23:53:39.148Z,4.13
2023-03-11T23:56:11.542Z,5.00
2023-03-11T23:58:39.738Z,5.10
